createdAt,value
2024-01-04T00:01:20.564Z,98222.31
2024-01-04T00:03:25.981Z,98228.41
2024-01-04T00:05:30.463Z,98225.03
2024-01-04T00:07:32.438Z,98227.06
2024-01-04T00:09:35.468Z,98231.19
2024-01-04T00:11:38.485Z,98234.69
2024-01-04T00:13:41.516Z,98236.75
2024-01-04T00:15:44.565Z,98233.59
2024-01-04T00:17:47.625Z,98241.28
2024-01-04T00:19:50.915Z,98245.34
2024-01-04T00:21:55.218Z,98243.06
2024-01-04T00:23:59.138Z,98241.88
2024-01-04T00:26:01.662Z,98252.22
2024-01-04T00:28:04.950Z,98255.91
2024-01-04T00:30:09.619Z,98264.03
2024-01-04T00:32:12.691Z,98254.84
2024-01-04T00:34:16.195Z,98263.47
2024-01-04T00:36:18.905Z,98268.44
2024-01-04T00:38:23.383Z,98267.56
2024-01-04T00:40:26.411Z,98264.69
2024-01-04T00:42:29.367Z,98266.59
2024-01-04T00:44:32.354Z,98274.38
2024-01-04T00:46:35.383Z,98271.88
2024-01-04T00:48:37.990Z,98282.47
2024-01-04T00:50:41.375Z,98285.38
2024-01-04T00:52:43.323Z,98288.28
2024-01-04T00:54:47.980Z,98287.88
2024-01-04T00:56:50.885Z,98283.00
2024-01-04T00:58:53.864Z,98295.00
2024-01-04T01:00:58.690Z,98299.25
2024-01-04T01:03:00.860Z,98300.06
2024-01-04T01:05:03.898Z,98292.59
2024-01-04T01:07:07.018Z,98310.03
2024-01-04T01:09:09.113Z,98305.31
2024-01-04T01:11:13.668Z,98316.44
2024-01-04T01:13:21.377Z,98311.03
2024-01-04T01:15:24.423Z,98314.06
2024-01-04T01:17:28.701Z,98319.69
2024-01-04T01:19:31.898Z,98329.84
2024-01-04T01:21:35.083Z,98329.34
2024-01-04T01:23:38.162Z,98328.13
2024-01-04T01:25:41.146Z,98340.13
2024-01-04T01:27:46.066Z,98343.22
2024-01-04T01:29:49.190Z,98343.00
2024-01-04T01:31:51.173Z,98357.41
2024-01-04T01:33:54.288Z,98355.69
2024-01-04T01:35:57.387Z,98358.50
2024-01-04T01:38:00.437Z,98369.75
2024-01-04T01:40:03.664Z,98369.28
2024-01-04T01:42:06.393Z,98374.06
2024-01-04T01:44:12.155Z,98374.22
2024-01-04T01:46:15.140Z,98370.78
2024-01-04T01:48:18.287Z,98380.44
2024-01-04T01:50:23.508Z,98373.75
2024-01-04T01:52:26.788Z,98387.72
2024-01-04T01:54:29.785Z,98385.47
2024-01-04T01:56:32.214Z,98386.53
2024-01-04T01:58:35.429Z,98393.66
2024-01-04T02:00:40.219Z,98390.63
2024-01-04T02:02:46.249Z,98400.44
2024-01-04T02:04:49.951Z,98397.06
2024-01-04T02:06:52.142Z,98413.28
2024-01-04T02:08:55.317Z,98408.38
2024-01-04T02:10:57.346Z,98414.34
2024-01-04T02:13:00.641Z,98415.06
2024-01-04T02:15:02.710Z,98429.56
2024-01-04T02:17:07.357Z,98432.81
2024-01-04T02:19:10.887Z,98437.00
2024-01-04T02:21:14.047Z,98434.63
2024-01-04T02:23:18.377Z,98441.22
2024-01-04T02:25:21.317Z,98455.78
2024-01-04T02:27:24.334Z,98459.16
2024-01-04T02:29:27.816Z,98454.81
2024-01-04T02:31:30.793Z,98467.28
2024-01-04T02:33:34.111Z,98459.44
2024-01-04T02:35:37.172Z,98468.75
2024-01-04T02:37:40.484Z,98478.72
2024-01-04T02:39:45.131Z,98491.44
2024-01-04T02:41:48.613Z,98487.19
2024-01-04T02:43:51.990Z,98508.91
2024-01-04T02:45:55.029Z,98505.88
2024-01-04T02:47:58.212Z,98519.88
2024-01-04T02:50:01.958Z,98519.97
2024-01-04T02:52:05.249Z,98517.94
2024-01-04T02:54:09.175Z,98520.28
2024-01-04T02:56:13.664Z,98532.94
2024-01-04T02:58:16.645Z,98531.91
2024-01-04T03:00:20.683Z,98534.09
2024-01-04T03:02:23.782Z,98542.13
2024-01-04T03:04:26.757Z,98547.28
2024-01-04T03:06:31.637Z,98545.81
2024-01-04T03:08:34.897Z,98558.88
2024-01-04T03:10:37.892Z,98562.25
2024-01-04T03:12:42.428Z,98564.16
2024-01-04T03:14:44.569Z,98575.78
2024-01-04T03:16:47.575Z,98570.94
2024-01-04T03:18:50.938Z,98571.38
2024-01-04T03:20:54.101Z,98569.88
2024-01-04T03:22:57.021Z,98577.03
2024-01-04T03:24:59.938Z,98576.75
2024-01-04T03:27:02.929Z,98579.88
2024-01-04T03:29:07.215Z,98577.47
2024-01-04T03:31:10.271Z,98576.81
2024-01-04T03:33:13.564Z,98584.22
2024-01-04T03:35:16.768Z,98586.97
2024-01-04T03:37:19.802Z,98595.75
2024-01-04T03:39:23.147Z,98594.78
2024-01-04T03:41:26.278Z,98599.34
2024-01-04T03:43:29.236Z,98594.38
2024-01-04T03:45:34.202Z,98600.47
2024-01-04T03:47:37.343Z,98605.19
2024-01-04T03:49:40.590Z,98611.94
2024-01-04T03:51:43.675Z,98609.97
2024-01-04T03:53:45.628Z,98612.78
2024-01-04T03:55:49.243Z,98610.47
2024-01-04T03:57:52.385Z,98611.56
2024-01-04T03:59:55.459Z,98614.63
2024-01-04T04:01:59.804Z,98619.69
2024-01-04T04:04:03.104Z,98638.66
2024-01-04T04:06:07.255Z,98636.13
2024-01-04T04:08:10.243Z,98635.41
2024-01-04T04:10:13.310Z,98633.50
2024-01-04T04:12:16.365Z,98637.41
2024-01-04T04:14:19.562Z,98641.84
2024-01-04T04:16:22.701Z,98643.56
2024-01-04T04:18:27.467Z,98655.34
2024-01-04T04:20:30.850Z,98648.09
2024-01-04T04:22:35.480Z,98660.47
2024-01-04T04:24:38.560Z,98660.56
2024-01-04T04:26:41.776Z,98656.78
2024-01-04T04:28:44.062Z,98660.19
2024-01-04T04:30:47.034Z,98661.53
2024-01-04T04:32:50.295Z,98671.88
2024-01-04T04:34:54.701Z,98664.59
2024-01-04T04:36:57.683Z,98667.06
2024-01-04T04:39:03.641Z,98666.66
2024-01-04T04:41:07.468Z,98673.66
2024-01-04T04:43:10.549Z,98670.63
2024-01-04T04:45:13.753Z,98678.47
2024-01-04T04:47:16.833Z,98675.84
2024-01-04T04:49:20.111Z,98672.66
2024-01-04T04:51:24.880Z,98679.94
2024-01-04T04:53:27.904Z,98678.06
2024-01-04T04:55:30.730Z,98685.63
2024-01-04T04:57:33.730Z,98686.94
2024-01-04T04:59:36.945Z,98685.00
2024-01-04T05:01:41.054Z,98693.00
2024-01-04T05:03:45.551Z,98696.66
2024-01-04T05:05:49.808Z,98695.59
2024-01-04T05:07:54.157Z,98694.53
2024-01-04T05:09:57.273Z,98699.56
2024-01-04T05:12:00.162Z,98712.25
2024-01-04T05:14:03.803Z,98709.59
2024-01-04T05:16:08.409Z,98718.81
2024-01-04T05:18:12.068Z,98721.78
2024-01-04T05:20:16.692Z,98728.19
2024-01-04T05:22:20.385Z,98738.84
2024-01-04T05:24:25.166Z,98734.56
2024-01-04T05:26:28.545Z,98746.06
2024-01-04T05:28:31.828Z,98738.16
2024-01-04T05:30:35.176Z,98736.94
2024-01-04T05:32:39.190Z,98739.38
2024-01-04T05:34:44.489Z,98744.16
2024-01-04T05:36:47.635Z,98753.16
2024-01-04T05:38:50.609Z,98751.34
2024-01-04T05:40:53.961Z,98759.78
2024-01-04T05:42:58.816Z,98760.25
2024-01-04T05:45:01.845Z,98768.13
2024-01-04T05:47:06.194Z,98773.09
2024-01-04T05:49:09.216Z,98783.91
2024-01-04T05:51:15.235Z,98788.84
2024-01-04T05:53:18.817Z,98788.22
2024-01-04T05:55:21.793Z,98786.78
2024-01-04T05:57:28.644Z,98799.75
2024-01-04T05:59:31.749Z,98802.09
2024-01-04T06:01:35.138Z,98812.53
2024-01-04T06:03:38.965Z,98826.53
2024-01-04T06:05:42.255Z,98820.19
2024-01-04T06:07:44.466Z,98831.47
2024-01-04T06:09:47.420Z,98829.09
2024-01-04T06:11:49.512Z,98821.19
2024-01-04T06:13:54.121Z,98814.09
2024-01-04T06:15:57.427Z,98813.69
2024-01-04T06:18:00.820Z,98823.13
2024-01-04T06:20:04.026Z,98829.50
2024-01-04T06:22:06.958Z,98828.75
2024-01-04T06:24:10.168Z,98837.00
2024-01-04T06:26:19.382Z,98837.19
2024-01-04T06:28:22.369Z,98852.66
2024-01-04T06:30:26.943Z,98852.28
2024-01-04T06:32:29.113Z,98865.25
2024-01-04T06:34:32.246Z,98872.69
2024-01-04T06:36:35.323Z,98871.28
2024-01-04T06:38:38.372Z,98877.41
2024-01-04T06:40:42.014Z,98871.47
2024-01-04T06:42:47.184Z,98877.09
2024-01-04T06:44:50.414Z,98875.78
2024-01-04T06:46:54.731Z,98877.28
2024-01-04T06:48:57.892Z,98886.06
2024-01-04T06:51:01.449Z,98890.88
2024-01-04T06:53:04.739Z,98882.38
2024-01-04T06:55:08.113Z,98888.41
2024-01-04T06:57:12.291Z,98897.25
2024-01-04T06:59:15.327Z,98896.91
2024-01-04T07:01:19.718Z,98894.06
2024-01-04T07:03:24.054Z,98897.81
2024-01-04T07:05:27.193Z,98889.75
2024-01-04T07:07:29.157Z,98889.00
2024-01-04T07:09:33.299Z,98898.75
2024-01-04T07:11:36.309Z,98909.78
2024-01-04T07:13:39.312Z,98900.47
2024-01-04T07:15:42.335Z,98910.91
2024-01-04T07:17:45.375Z,98902.81
2024-01-04T07:19:49.848Z,98899.25
2024-01-04T07:21:52.790Z,98915.72
2024-01-04T07:23:56.808Z,98914.28
2024-01-04T07:25:59.763Z,98916.75
2024-01-04T07:28:04.755Z,98913.81
2024-01-04T07:30:10.176Z,98916.28
2024-01-04T07:32:12.833Z,98916.84
2024-01-04T07:34:15.877Z,98937.00
2024-01-04T07:36:20.262Z,98927.84
2024-01-04T07:38:23.687Z,98934.63
2024-01-04T07:40:27.070Z,98939.63
2024-01-04T07:42:30.598Z,98933.00
2024-01-04T07:44:33.577Z,98938.88
2024-01-04T07:46:36.533Z,98942.97
2024-01-04T07:48:39.915Z,98944.50
2024-01-04T07:50:43.523Z,98949.88
2024-01-04T07:52:47.958Z,98965.31
2024-01-04T07:54:51.652Z,98980.19
2024-01-04T07:56:55.131Z,98969.53
2024-01-04T07:58:58.277Z,98986.22
2024-01-04T08:01:02.930Z,98974.25
2024-01-04T08:03:06.677Z,98971.63
2024-01-04T08:05:11.026Z,98966.72
2024-01-04T08:07:14.099Z,98981.78
2024-01-04T08:09:19.573Z,98973.31
2024-01-04T08:11:23.990Z,98977.19
2024-01-04T08:13:27.011Z,98971.34
2024-01-04T08:15:30.583Z,98970.94
2024-01-04T08:17:32.621Z,98969.53
2024-01-04T08:19:36.366Z,98975.56
2024-01-04T08:21:39.537Z,98983.28
2024-01-04T08:23:43.389Z,98981.19
2024-01-04T08:25:47.126Z,98981.97
2024-01-04T08:27:50.083Z,98992.91
2024-01-04T08:29:52.382Z,98999.31
2024-01-04T08:31:55.637Z,99007.63
2024-01-04T08:33:59.145Z,99016.44
2024-01-04T08:36:03.036Z,99017.59
2024-01-04T08:38:09.282Z,99017.56
2024-01-04T08:40:12.976Z,99018.03
2024-01-04T08:42:21.033Z,99029.06
2024-01-04T08:44:24.180Z,99029.91
2024-01-04T08:46:27.581Z,99023.03
2024-01-04T08:48:31.049Z,99026.25
2024-01-04T08:50:34.259Z,99026.66
2024-01-04T08:52:37.613Z,99028.22
2024-01-04T08:54:39.622Z,99031.69
2024-01-04T08:56:42.563Z,99037.53
2024-01-04T08:58:47.056Z,99041.50
2024-01-04T09:00:53.647Z,99039.63
2024-01-04T09:02:57.540Z,99047.34
2024-01-04T09:05:01.921Z,99045.44
2024-01-04T09:07:05.429Z,99049.41
2024-01-04T09:09:09.453Z,99054.13
2024-01-04T09:11:12.612Z,99051.94
2024-01-04T09:13:16.672Z,99047.91
2024-01-04T09:15:21.274Z,99057.59
2024-01-04T09:17:23.352Z,99056.59
2024-01-04T09:19:28.195Z,99066.09
2024-01-04T09:21:32.298Z,99067.53
2024-01-04T09:23:35.247Z,99066.28
2024-01-04T09:25:38.557Z,99073.31
2024-01-04T09:27:41.515Z,99070.31
2024-01-04T09:29:45.429Z,99083.31
2024-01-04T09:31:51.082Z,99084.81
2024-01-04T09:33:56.021Z,99085.56
2024-01-04T09:36:01.520Z,99094.63
2024-01-04T09:38:04.897Z,99099.63
2024-01-04T09:40:08.046Z,99096.53
2024-01-04T09:42:12.004Z,99099.47
2024-01-04T09:44:15.385Z,99098.97
2024-01-04T09:46:22.217Z,99109.53
2024-01-04T09:48:34.786Z,99115.94
2024-01-04T09:50:38.734Z,99119.44
2024-01-04T09:52:45.471Z,99122.28
2024-01-04T09:54:48.868Z,99115.75
2024-01-04T09:56:55.156Z,99122.16
2024-01-04T09:58:57.224Z,99126.31
2024-01-04T10:01:01.933Z,99124.72
2024-01-04T10:03:05.729Z,99120.94
2024-01-04T10:05:11.292Z,99118.78
2024-01-04T10:07:19.013Z,99127.75
2024-01-04T10:09:26.757Z,99125.19
2024-01-04T10:11:34.187Z,99132.72
2024-01-04T10:13:37.956Z,99131.72
2024-01-04T10:15:44.729Z,99136.47
2024-01-04T10:17:49.094Z,99131.47
2024-01-04T10:19:52.406Z,99130.38
2024-01-04T10:22:02.065Z,99139.59
2024-01-04T10:24:05.524Z,99135.06
2024-01-04T10:26:10.283Z,99134.78
2024-01-04T10:28:21.333Z,99129.91
2024-01-04T10:30:23.516Z,99137.63
2024-01-04T10:32:26.715Z,99139.69
2024-01-04T10:34:29.643Z,99132.81
2024-01-04T10:36:34.143Z,99150.06
2024-01-04T10:38:37.665Z,99139.25
2024-01-04T10:40:41.033Z,99148.94
2024-01-04T10:42:54.586Z,99148.25
2024-01-04T10:44:58.671Z,99147.41
2024-01-04T10:47:02.937Z,99148.19
2024-01-04T10:49:06.866Z,99148.63
2024-01-04T10:51:10.935Z,99151.25
2024-01-04T10:53:14.823Z,99147.63
2024-01-04T10:55:21.378Z,99155.00
2024-01-04T10:57:25.349Z,99155.53
2024-01-04T10:59:30.290Z,99151.94
2024-01-04T11:01:33.295Z,99154.25
2024-01-04T11:03:36.388Z,99163.72
2024-01-04T11:05:41.051Z,99169.38
2024-01-04T11:07:44.522Z,99168.47
2024-01-04T11:09:47.553Z,99160.38
2024-01-04T11:11:54.192Z,99159.31
2024-01-04T11:13:57.299Z,99168.31
2024-01-04T11:16:02.089Z,99155.91
2024-01-04T11:18:23.042Z,99172.25
2024-01-04T11:20:32.482Z,99170.22
2024-01-04T11:22:58.752Z,99164.38
2024-01-04T11:25:07.865Z,99173.03
2024-01-04T11:27:15.506Z,99174.00
2024-01-04T11:29:18.549Z,99168.81
2024-01-04T11:31:24.849Z,99171.88
2024-01-04T11:33:29.431Z,99170.97
2024-01-04T11:35:35.902Z,99164.38
2024-01-04T11:37:39.201Z,99167.34
2024-01-04T11:40:01.500Z,99169.59
2024-01-04T11:42:16.368Z,99165.13
2024-01-04T11:44:19.693Z,99174.69
2024-01-04T11:46:24.020Z,99170.22
2024-01-04T11:48:30.449Z,99171.09
2024-01-04T11:50:33.616Z,99161.56
2024-01-04T11:52:36.577Z,99170.19
2024-01-04T11:54:43.027Z,99163.34
2024-01-04T11:56:46.768Z,99157.59
2024-01-04T11:58:50.391Z,99164.72
2024-01-04T12:00:54.139Z,99164.03
2024-01-04T12:02:57.752Z,99158.75
2024-01-04T12:05:00.583Z,99158.94
2024-01-04T12:07:05.570Z,99166.75
2024-01-04T12:09:09.255Z,99159.41
2024-01-04T12:11:13.687Z,99164.22
2024-01-04T12:13:17.656Z,99168.81
2024-01-04T12:15:23.741Z,99165.91
2024-01-04T12:17:26.201Z,99164.03
2024-01-04T12:19:30.164Z,99167.72
2024-01-04T12:21:35.981Z,99164.41
2024-01-04T12:23:39.279Z,99169.81
2024-01-04T12:25:43.211Z,99176.09
2024-01-04T12:27:47.165Z,99177.78
2024-01-04T12:29:50.370Z,99174.97
2024-01-04T12:31:55.582Z,99173.41
2024-01-04T12:33:59.688Z,99171.78
2024-01-04T12:36:03.319Z,99170.44
2024-01-04T12:38:07.395Z,99170.84
2024-01-04T12:40:14.071Z,99167.59
2024-01-04T12:42:17.157Z,99169.59
2024-01-04T12:44:22.876Z,99171.63
2024-01-04T12:46:28.507Z,99171.19
2024-01-04T12:48:33.155Z,99163.47
2024-01-04T12:50:38.397Z,99170.25
2024-01-04T12:52:42.118Z,99176.28
2024-01-04T12:54:45.567Z,99174.03
2024-01-04T12:56:54.046Z,99169.78
2024-01-04T12:58:57.901Z,99173.56
2024-01-04T13:01:00.829Z,99172.97
2024-01-04T13:03:04.060Z,99164.97
2024-01-04T13:05:10.350Z,99172.03
2024-01-04T13:07:13.661Z,99176.69
2024-01-04T13:09:19.120Z,99178.47
2024-01-04T13:11:22.525Z,99179.78
2024-01-04T13:13:28.740Z,99176.44
2024-01-04T13:15:33.234Z,99173.56
2024-01-04T13:17:37.172Z,99184.06
2024-01-04T13:19:42.565Z,99182.78
2024-01-04T13:21:50.908Z,99188.16
2024-01-04T13:23:54.102Z,99187.69
2024-01-04T13:25:57.317Z,99193.63
2024-01-04T13:28:00.951Z,99191.84
2024-01-04T13:30:04.368Z,99197.03
2024-01-04T13:32:09.149Z,99205.56
2024-01-04T13:34:13.312Z,99196.66
2024-01-04T13:36:16.485Z,99193.66
2024-01-04T13:38:20.860Z,99194.03
2024-01-04T13:40:24.342Z,99204.59
2024-01-04T13:42:27.925Z,99191.94
2024-01-04T13:44:30.849Z,99198.97
2024-01-04T13:46:34.135Z,99200.81
2024-01-04T13:48:37.266Z,99211.75
2024-01-04T13:50:40.794Z,99206.88
2024-01-04T13:52:42.952Z,99220.75
2024-01-04T13:54:47.433Z,99214.03
2024-01-04T13:56:50.408Z,99220.72
2024-01-04T13:58:53.497Z,99227.41
2024-01-04T14:00:56.486Z,99227.41
2024-01-04T14:02:59.564Z,99226.69
2024-01-04T14:05:02.718Z,99224.38
2024-01-04T14:07:05.833Z,99226.97
2024-01-04T14:09:09.239Z,99223.59
2024-01-04T14:11:13.801Z,99229.88
2024-01-04T14:13:16.142Z,99226.06
2024-01-04T14:15:19.424Z,99228.66
2024-01-04T14:17:22.682Z,99244.44
2024-01-04T14:19:25.750Z,99234.06
2024-01-04T14:21:28.798Z,99234.66
2024-01-04T14:23:32.193Z,99241.56
2024-01-04T14:25:35.202Z,99246.22
2024-01-04T14:27:40.279Z,99245.38
2024-01-04T14:29:43.643Z,99256.59
2024-01-04T14:31:47.663Z,99252.03
2024-01-04T14:33:51.092Z,99263.78
2024-01-04T14:35:57.847Z,99257.53
2024-01-04T14:38:02.832Z,99258.75
2024-01-04T14:40:06.849Z,99256.81
2024-01-04T14:42:10.005Z,99255.94
2024-01-04T14:44:14.668Z,99258.03
2024-01-04T14:46:23.081Z,99259.34
2024-01-04T14:48:26.175Z,99259.75
2024-01-04T14:50:29.598Z,99268.28
2024-01-04T14:52:32.602Z,99263.94
2024-01-04T14:54:35.570Z,99271.03
2024-01-04T14:56:40.657Z,99268.63
2024-01-04T14:58:42.939Z,99276.09
2024-01-04T15:00:47.612Z,99282.56
2024-01-04T15:02:51.630Z,99291.16
2024-01-04T15:04:57.721Z,99289.56
2024-01-04T15:07:03.786Z,99282.31
2024-01-04T15:09:08.108Z,99285.44
2024-01-04T15:11:10.178Z,99287.56
2024-01-04T15:13:14.366Z,99292.53
2024-01-04T15:15:23.715Z,99294.09
2024-01-04T15:17:34.408Z,99295.97
2024-01-04T15:19:37.954Z,99302.13
2024-01-04T15:21:41.044Z,99301.41
2024-01-04T15:23:44.414Z,99304.88
2024-01-04T15:25:47.454Z,99307.31
2024-01-04T15:27:50.455Z,99307.69
2024-01-04T15:29:53.632Z,99304.94
2024-01-04T15:31:58.359Z,99305.19
2024-01-04T15:34:03.055Z,99294.28
2024-01-04T15:36:07.978Z,99308.75
2024-01-04T15:38:11.927Z,99306.56
2024-01-04T15:40:15.324Z,99310.13
2024-01-04T15:42:18.411Z,99309.94
2024-01-04T15:44:20.688Z,99307.22
2024-01-04T15:46:24.041Z,99313.53
2024-01-04T15:48:28.879Z,99314.22
2024-01-04T15:50:34.126Z,99309.53
2024-01-04T15:52:37.226Z,99320.34
2024-01-04T15:54:40.304Z,99318.13
2024-01-04T15:56:43.390Z,99311.66
2024-01-04T15:58:47.809Z,99312.94
2024-01-04T16:00:51.929Z,99313.06
2024-01-04T16:02:55.881Z,99306.19
2024-01-04T16:04:58.947Z,99313.53
2024-01-04T16:07:05.784Z,99303.47
2024-01-04T16:09:10.159Z,99308.25
2024-01-04T16:11:13.356Z,99308.31
2024-01-04T16:13:16.363Z,99305.16
2024-01-04T16:15:18.924Z,99311.66
2024-01-04T16:17:21.882Z,99307.38
2024-01-04T16:19:25.024Z,99300.03
2024-01-04T16:21:28.667Z,99303.78
2024-01-04T16:23:33.054Z,99313.44
2024-01-04T16:25:35.099Z,99311.09
2024-01-04T16:27:39.453Z,99315.56
2024-01-04T16:29:42.935Z,99319.56
2024-01-04T16:31:46.149Z,99314.97
2024-01-04T16:33:49.535Z,99316.34
2024-01-04T16:35:52.699Z,99324.06
2024-01-04T16:37:56.951Z,99321.34
2024-01-04T16:40:01.552Z,99318.13
2024-01-04T16:42:04.952Z,99314.00
2024-01-04T16:44:06.956Z,99318.72
2024-01-04T16:46:10.032Z,99326.09
2024-01-04T16:48:13.304Z,99317.94
2024-01-04T16:50:16.658Z,99314.44
2024-01-04T16:52:20.103Z,99317.75
2024-01-04T16:54:23.351Z,99313.72
2024-01-04T16:56:27.931Z,99312.41
2024-01-04T16:58:31.438Z,99310.97
2024-01-04T17:00:33.967Z,99326.09
2024-01-04T17:02:36.880Z,99320.03
2024-01-04T17:04:40.864Z,99328.41
2024-01-04T17:06:44.379Z,99316.56
2024-01-04T17:08:47.676Z,99314.47
2024-01-04T17:10:50.676Z,99322.69
2024-01-04T17:12:55.156Z,99318.28
2024-01-04T17:14:58.180Z,99323.88
2024-01-04T17:17:01.194Z,99318.53
2024-01-04T17:19:04.310Z,99312.41
2024-01-04T17:21:07.630Z,99318.94
2024-01-04T17:23:10.546Z,99310.63
2024-01-04T17:25:13.198Z,99315.38
2024-01-04T17:27:16.321Z,99314.84
2024-01-04T17:29:20.788Z,99324.41
2024-01-04T17:31:23.782Z,99321.06
2024-01-04T17:33:26.996Z,99313.34
2024-01-04T17:35:31.541Z,99321.84
2024-01-04T17:37:34.889Z,99316.13
2024-01-04T17:39:37.925Z,99316.66
2024-01-04T17:41:41.929Z,99324.28
2024-01-04T17:43:45.192Z,99321.88
2024-01-04T17:45:49.017Z,99324.66
2024-01-04T17:47:52.162Z,99325.97
2024-01-04T17:49:54.391Z,99328.13
2024-01-04T17:51:57.509Z,99321.75
2024-01-04T17:54:03.413Z,99321.22
2024-01-04T17:56:07.319Z,99322.63
2024-01-04T17:58:10.369Z,99319.06
2024-01-04T18:00:13.711Z,99324.69
2024-01-04T18:02:18.476Z,99319.38
2024-01-04T18:04:22.454Z,99324.88
2024-01-04T18:06:25.945Z,99320.56
2024-01-04T18:08:29.048Z,99328.56
2024-01-04T18:10:32.172Z,99325.84
2024-01-04T18:12:36.273Z,99321.97
2024-01-04T18:14:39.492Z,99320.66
2024-01-04T18:16:43.129Z,99324.22
2024-01-04T18:18:47.858Z,99324.34
2024-01-04T18:20:50.081Z,99326.53
2024-01-04T18:22:55.358Z,99332.75
2024-01-04T18:25:00.279Z,99331.63
2024-01-04T18:27:03.670Z,99331.25
2024-01-04T18:29:06.741Z,99328.69
2024-01-04T18:31:10.715Z,99340.13
2024-01-04T18:33:14.560Z,99343.13
2024-01-04T18:35:22.082Z,99347.03
2024-01-04T18:37:25.081Z,99356.97
2024-01-04T18:39:29.739Z,99357.16
2024-01-04T18:41:32.768Z,99342.97
2024-01-04T18:43:37.201Z,99338.50
2024-01-04T18:45:40.502Z,99342.81
2024-01-04T18:47:43.162Z,99345.94
2024-01-04T18:49:47.371Z,99344.66
2024-01-04T18:51:56.572Z,99340.13
2024-01-04T18:54:02.313Z,99334.56
2024-01-04T18:56:07.541Z,99333.84
2024-01-04T18:58:11.032Z,99339.22
2024-01-04T19:00:14.579Z,99336.66
2024-01-04T19:02:19.165Z,99336.91
2024-01-04T19:04:22.379Z,99331.00
2024-01-04T19:06:25.495Z,99331.44
2024-01-04T19:08:30.105Z,99323.22
2024-01-04T19:10:33.658Z,99321.50
2024-01-04T19:12:37.824Z,99311.44
2024-01-04T19:14:41.197Z,99314.09
2024-01-04T19:16:47.841Z,99311.25
2024-01-04T19:18:52.263Z,99314.69
2024-01-04T19:20:56.722Z,99313.28
2024-01-04T19:23:04.491Z,99304.13
2024-01-04T19:25:14.478Z,99307.31
2024-01-04T19:27:17.931Z,99306.53
2024-01-04T19:29:20.975Z,99308.22
2024-01-04T19:31:23.949Z,99315.88
2024-01-04T19:33:27.051Z,99314.13
2024-01-04T19:35:30.054Z,99302.78
2024-01-04T19:37:32.984Z,99305.94
2024-01-04T19:39:36.003Z,99306.81
2024-01-04T19:41:40.789Z,99303.00
2024-01-04T19:43:44.090Z,99309.47
2024-01-04T19:45:53.910Z,99308.91
2024-01-04T19:47:58.898Z,99304.50
2024-01-04T19:50:03.264Z,99299.34
2024-01-04T19:52:07.106Z,99297.16
2024-01-04T19:54:13.665Z,99293.53
2024-01-04T19:56:17.835Z,99294.09
2024-01-04T19:58:22.442Z,99295.66
2024-01-04T20:00:25.498Z,99292.59
2024-01-04T20:02:29.688Z,99291.88
2024-01-04T20:04:32.782Z,99293.41
2024-01-04T20:06:35.900Z,99299.97
2024-01-04T20:08:38.891Z,99308.56
2024-01-04T20:10:41.808Z,99301.44
2024-01-04T20:12:43.805Z,99302.53
2024-01-04T20:14:48.112Z,99297.88
2024-01-04T20:16:50.529Z,99307.31
2024-01-04T20:18:54.880Z,99302.75
2024-01-04T20:20:58.117Z,99302.53
2024-01-04T20:23:00.153Z,99289.66
2024-01-04T20:25:03.021Z,99281.16
2024-01-04T20:27:05.545Z,99281.47
2024-01-04T20:29:08.666Z,99280.22
2024-01-04T20:31:13.250Z,99279.53
2024-01-04T20:33:16.399Z,99289.38
2024-01-04T20:35:19.672Z,99293.78
2024-01-04T20:37:23.276Z,99286.38
2024-01-04T20:39:26.414Z,99289.50
2024-01-04T20:41:28.791Z,99285.88
2024-01-04T20:43:31.775Z,99285.31
2024-01-04T20:45:34.896Z,99282.56
2024-01-04T20:47:39.396Z,99273.75
2024-01-04T20:49:46.905Z,99276.88
2024-01-04T20:51:50.255Z,99281.72
2024-01-04T20:53:53.298Z,99268.81
2024-01-04T20:55:57.477Z,99271.44
2024-01-04T20:58:00.461Z,99275.44
2024-01-04T21:00:04.034Z,99268.50
2024-01-04T21:02:07.379Z,99275.44
2024-01-04T21:04:12.048Z,99270.75
2024-01-04T21:06:15.288Z,99269.34
2024-01-04T21:08:20.371Z,99275.38
2024-01-04T21:10:23.306Z,99271.66
2024-01-04T21:12:27.649Z,99274.59
2024-01-04T21:14:33.880Z,99270.25
2024-01-04T21:16:36.998Z,99269.81
2024-01-04T21:18:41.224Z,99269.03
2024-01-04T21:20:46.487Z,99260.03
2024-01-04T21:22:49.601Z,99255.69
2024-01-04T21:24:52.603Z,99253.84
2024-01-04T21:26:56.988Z,99250.31
2024-01-04T21:29:00.867Z,99254.34
2024-01-04T21:31:04.182Z,99255.69
2024-01-04T21:33:07.792Z,99243.91
2024-01-04T21:35:13.291Z,99252.03
2024-01-04T21:37:18.529Z,99255.66
2024-01-04T21:39:22.260Z,99258.38
2024-01-04T21:41:25.361Z,99249.31
2024-01-04T21:43:29.844Z,99242.19
2024-01-04T21:45:32.892Z,99238.59
2024-01-04T21:47:35.151Z,99236.06
2024-01-04T21:49:38.470Z,99236.53
2024-01-04T21:51:42.866Z,99229.38
2024-01-04T21:53:49.364Z,99225.88
2024-01-04T21:55:52.417Z,99220.91
2024-01-04T21:57:55.530Z,99217.22
2024-01-04T22:00:02.166Z,99217.72
2024-01-04T22:02:07.405Z,99220.53
2024-01-04T22:04:09.792Z,99219.00
2024-01-04T22:06:13.044Z,99219.19
2024-01-04T22:08:17.073Z,99211.97
2024-01-04T22:10:28.016Z,99210.59
2024-01-04T22:12:31.870Z,99208.09
2024-01-04T22:14:34.885Z,99218.16
2024-01-04T22:16:39.777Z,99219.16
2024-01-04T22:18:45.733Z,99214.53
2024-01-04T22:20:49.761Z,99220.09
2024-01-04T22:22:52.727Z,99212.63
2024-01-04T22:24:56.277Z,99204.44
2024-01-04T22:27:01.650Z,99202.44
2024-01-04T22:29:04.681Z,99198.47
2024-01-04T22:31:07.926Z,99202.28
2024-01-04T22:33:11.061Z,99190.41
2024-01-04T22:35:15.052Z,99186.16
2024-01-04T22:37:17.129Z,99176.16
2024-01-04T22:39:20.131Z,99177.53
2024-01-04T22:41:23.149Z,99167.50
2024-01-04T22:43:27.497Z,99162.88
2024-01-04T22:45:30.520Z,99162.88
2024-01-04T22:47:33.531Z,99160.69
2024-01-04T22:49:37.958Z,99150.66
2024-01-04T22:51:40.191Z,99153.72
2024-01-04T22:53:43.313Z,99151.16
2024-01-04T22:55:45.364Z,99144.84
2024-01-04T22:57:48.954Z,99139.66
2024-01-04T22:59:55.886Z,99134.16
2024-01-04T23:02:00.136Z,99129.56
2024-01-04T23:04:03.310Z,99132.91
2024-01-04T23:06:06.104Z,99132.81
2024-01-04T23:08:09.076Z,99126.50
2024-01-04T23:10:13.128Z,99124.31
2024-01-04T23:12:16.367Z,99112.66
2024-01-04T23:14:21.315Z,99114.97
2024-01-04T23:16:25.710Z,99108.34
2024-01-04T23:18:28.016Z,99120.06
2024-01-04T23:20:31.126Z,99110.06
2024-01-04T23:22:34.327Z,99112.84
2024-01-04T23:24:40.979Z,99103.50
2024-01-04T23:26:44.759Z,99105.47
2024-01-04T23:28:47.964Z,99106.06
2024-01-04T23:30:50.006Z,99101.97
2024-01-04T23:32:54.486Z,99106.75
2024-01-04T23:34:58.152Z,99107.47
2024-01-04T23:37:01.308Z,99100.34
2024-01-04T23:39:04.436Z,99092.41
2024-01-04T23:41:07.557Z,99098.41
2024-01-04T23:43:11.080Z,99090.84
2024-01-04T23:45:13.092Z,99080.50
2024-01-04T23:47:16.155Z,99074.81
2024-01-04T23:49:20.655Z,99078.47
2024-01-04T23:51:23.835Z,99070.56
2024-01-04T23:53:26.815Z,99062.81
2024-01-04T23:55:29.849Z,99059.75
2024-01-04T23:57:32.281Z,99054.00
2024-01-04T23:59:35.535Z,99045.66
